Terminal Aerodrome Forecast
Issued by NWS Omaha/Valley, NE

Home | Current Version | Previous Version | Text Only | Print | Product List | Glossary Off
Versions: 1 2 3 4 5 6 7 8 9 10 11 12 13 14 15 16 17 18 19 20 21 22 23 24 25 26 27 28 29 30 31 32 33 34 35 36 37 38

936
FTUS43 KOAX 230203 AAA
TAFOFK
TAF AMD
KOFK 230203Z 2302/2324 01007KT P6SM SCT200
     FM231500 03010KT P6SM OVC025
     FM231800 06016G24KT P6SM OVC015 PROB30 2321/2324 5SM -RA
      OVC007=

USA.gov is the U.S. government's official web portal to all federal, state and local government web resources and services.